createdAt,value
2018-06-30T00:00:04.589Z,13.9
2018-06-30T00:01:29.549Z,13.7
2018-06-30T00:02:49.409Z,12.3
2018-06-30T00:04:09.305Z,12.6
2018-06-30T00:05:49.399Z,12.6
2018-06-30T00:07:09.275Z,12.3
2018-06-30T00:08:36.724Z,14.1
2018-06-30T00:09:56.551Z,14
2018-06-30T00:11:18.926Z,14
2018-06-30T00:12:41.321Z,14.1
2018-06-30T00:14:06.199Z,13.8
2018-06-30T00:15:28.609Z,13.6
2018-06-30T00:16:48.450Z,13.6
2018-06-30T00:18:08.297Z,14
2018-06-30T00:19:33.189Z,13.7
2018-06-30T00:20:58.141Z,14
2018-06-30T00:22:17.966Z,14.1
2018-06-30T00:23:40.363Z,14.2
2018-06-30T00:25:00.187Z,13.2
2018-06-30T00:26:20.021Z,13.7
2018-06-30T00:27:42.375Z,14.1
2018-06-30T00:29:04.753Z,14
2018-06-30T00:30:27.123Z,13.7
2018-06-30T00:31:46.972Z,14.1
2018-06-30T00:33:09.408Z,13.8
2018-06-30T00:34:29.277Z,13.9
2018-06-30T00:35:49.187Z,13.9
2018-06-30T00:37:11.541Z,14.1
2018-06-30T00:38:33.965Z,13.8
2018-06-30T00:39:56.316Z,14.1
2018-06-30T00:41:18.729Z,14.3
2018-06-30T00:42:38.554Z,13.4
2018-06-30T00:43:58.435Z,14
2018-06-30T00:45:20.818Z,13.8
2018-06-30T00:46:45.704Z,14
2018-06-30T00:48:05.533Z,14.2
2018-06-30T00:49:25.372Z,14.2
2018-06-30T00:50:45.210Z,14.2
2018-06-30T00:52:05.064Z,14.1
2018-06-30T00:53:24.895Z,14.2
2018-06-30T00:54:47.256Z,13.8
2018-06-30T00:56:07.115Z,14
2018-06-30T00:57:29.494Z,14
2018-06-30T00:58:49.353Z,14.2
2018-06-30T01:00:11.710Z,13.8
2018-06-30T01:01:36.593Z,14.1
2018-06-30T01:02:58.986Z,13.9
2018-06-30T01:04:18.881Z,14
2018-06-30T01:05:38.769Z,13.2
2018-06-30T01:06:58.666Z,13.5
2018-06-30T01:08:23.594Z,13.8
2018-06-30T01:09:45.952Z,14.2
2018-06-30T01:11:05.773Z,14.1
2018-06-30T01:12:25.602Z,13.9
2018-06-30T01:13:47.974Z,14.1
2018-06-30T01:15:07.801Z,14.1
2018-06-30T01:16:27.667Z,14.3
2018-06-30T01:17:50.017Z,13.8
2018-06-30T01:19:09.885Z,13.9
2018-06-30T01:20:32.262Z,14.1
2018-06-30T01:21:52.098Z,14.2
2018-06-30T01:23:14.479Z,14.2
2018-06-30T01:24:39.436Z,13.4
2018-06-30T01:26:01.790Z,14
2018-06-30T01:27:21.616Z,13.8
2018-06-30T01:28:41.491Z,14.2
2018-06-30T01:30:03.872Z,14.2
2018-06-30T01:31:23.735Z,14
2018-06-30T01:32:46.091Z,13.8
2018-06-30T01:34:08.458Z,14
2018-06-30T01:35:30.845Z,14.2
2018-06-30T01:36:58.275Z,14.1
2018-06-30T01:38:23.217Z,13.9
2018-06-30T01:39:43.081Z,14.1
2018-06-30T01:41:08.023Z,14
2018-06-30T01:42:27.851Z,13.8
2018-06-30T01:44:00.355Z,13.8
2018-06-30T01:45:20.188Z,13.3
2018-06-30T01:46:42.544Z,13.1
2018-06-30T01:48:02.413Z,13.7
2018-06-30T01:49:27.350Z,13.8
2018-06-30T01:50:47.198Z,12.7
2018-06-30T01:52:14.618Z,13
2018-06-30T01:53:39.578Z,12.4
2018-06-30T01:55:01.936Z,12.7
2018-06-30T01:56:21.800Z,12.5
2018-06-30T01:57:41.637Z,12
2018-06-30T01:59:01.505Z,13.1
2018-06-30T02:00:23.938Z,13.3
2018-06-30T02:01:43.839Z,13.1
2018-06-30T02:03:06.242Z,13.3
2018-06-30T02:04:26.087Z,12.7
2018-06-30T02:05:45.906Z,13.1
2018-06-30T02:07:05.741Z,13.7
2018-06-30T02:08:25.572Z,13.9
2018-06-30T02:09:55.520Z,13.9
2018-06-30T02:11:17.938Z,14.5
2018-06-30T02:12:37.764Z,14
2018-06-30T02:13:57.584Z,14.4
2018-06-30T02:15:19.952Z,14.6
2018-06-30T02:16:39.820Z,14.6
2018-06-30T02:18:04.695Z,14.4
2018-06-30T02:19:24.533Z,14.6
2018-06-30T02:20:44.361Z,13.6
2018-06-30T02:22:09.318Z,13.5
2018-06-30T02:23:29.178Z,13.6
2018-06-30T02:24:49.031Z,13.5
2018-06-30T02:26:14.000Z,13.8
2018-06-30T02:27:36.355Z,13.7
2018-06-30T02:28:56.181Z,13.7
2018-06-30T02:30:16.062Z,13.7
2018-06-30T02:31:40.969Z,13.7
2018-06-30T02:33:03.394Z,13.7
2018-06-30T02:34:23.229Z,13.7
2018-06-30T02:35:43.064Z,13.6
2018-06-30T02:37:02.918Z,13.6
2018-06-30T02:38:22.743Z,13.7
2018-06-30T02:39:42.627Z,13.7
2018-06-30T02:41:05.019Z,13.7
2018-06-30T02:42:24.868Z,13.8
2018-06-30T02:43:44.690Z,13.8
2018-06-30T02:45:04.534Z,13.7
2018-06-30T02:46:26.937Z,13.8
2018-06-30T02:47:46.768Z,13.8
2018-06-30T02:49:06.589Z,13.8
2018-06-30T02:50:28.998Z,13.8
2018-06-30T02:51:51.370Z,13.8
2018-06-30T02:53:13.794Z,13.7
2018-06-30T02:54:33.650Z,13.8
2018-06-30T02:55:53.522Z,13.9
2018-06-30T02:57:18.454Z,13.8
2018-06-30T02:58:48.431Z,13.9
2018-06-30T03:00:08.290Z,13.9
2018-06-30T03:01:35.720Z,14
2018-06-30T03:02:55.545Z,14
2018-06-30T03:04:15.366Z,13.9
2018-06-30T03:05:40.310Z,13.9
2018-06-30T03:07:02.687Z,14
2018-06-30T03:08:47.834Z,13.9
2018-06-30T03:10:07.656Z,13.9
2018-06-30T03:11:30.058Z,14
2018-06-30T03:13:00.066Z,14
2018-06-30T03:14:19.897Z,13.9
2018-06-30T03:15:39.774Z,14
2018-06-30T03:17:02.138Z,13.9
2018-06-30T03:18:21.996Z,13.9
2018-06-30T03:19:46.898Z,13.9
2018-06-30T03:21:09.280Z,14
2018-06-30T03:22:36.701Z,13.8
2018-06-30T03:23:59.075Z,13.9
2018-06-30T03:25:18.964Z,13.8
2018-06-30T03:26:38.850Z,13.8
2018-06-30T03:27:58.755Z,14
2018-06-30T03:29:18.606Z,14
2018-06-30T03:30:53.680Z,14.1
2018-06-30T03:32:13.589Z,14.1
2018-06-30T03:33:33.451Z,14.1
2018-06-30T03:34:53.373Z,14.1
2018-06-30T03:36:13.238Z,14.1
2018-06-30T03:37:33.088Z,14.1
2018-06-30T03:38:58.000Z,14.1
2018-06-30T03:40:22.895Z,14.1
2018-06-30T03:41:42.806Z,14.1
2018-06-30T03:43:05.218Z,14.2
2018-06-30T03:44:25.074Z,14.1
2018-06-30T03:45:44.907Z,14.1
2018-06-30T03:47:04.780Z,14.1
2018-06-30T03:48:29.698Z,14.1
2018-06-30T03:49:49.566Z,14.1
2018-06-30T03:51:11.972Z,14.2
2018-06-30T03:52:31.796Z,14
2018-06-30T03:53:51.682Z,14
2018-06-30T03:55:11.516Z,14.1
2018-06-30T03:56:31.342Z,14.2
2018-06-30T03:57:51.172Z,14.1
2018-06-30T03:59:16.086Z,14.1
2018-06-30T04:00:38.539Z,14.1
2018-06-30T04:02:00.890Z,14
2018-06-30T04:03:20.716Z,14.1
2018-06-30T04:04:43.096Z,14.1
2018-06-30T04:06:08.000Z,14
2018-06-30T04:07:30.410Z,14.1
2018-06-30T04:08:50.269Z,14
2018-06-30T04:10:10.097Z,14.2
2018-06-30T04:11:32.456Z,14.1
2018-06-30T04:12:54.858Z,14
2018-06-30T04:14:14.751Z,14.1
2018-06-30T04:15:34.577Z,14
2018-06-30T04:16:59.465Z,14
2018-06-30T04:18:19.292Z,14.1
2018-06-30T04:19:39.150Z,14
2018-06-30T04:21:04.054Z,14.1
2018-06-30T04:22:26.404Z,14.1
2018-06-30T04:23:48.821Z,14.1
2018-06-30T04:25:08.695Z,14.2
2018-06-30T04:26:33.614Z,14.2
2018-06-30T04:27:53.522Z,14.1
2018-06-30T04:29:23.517Z,14.1
2018-06-30T04:30:43.422Z,14.2
2018-06-30T04:32:03.276Z,14.3
2018-06-30T04:33:23.169Z,14.4
2018-06-30T04:34:43.019Z,14.3
2018-06-30T04:36:15.480Z,14.3
2018-06-30T04:37:42.922Z,14.2
2018-06-30T04:39:10.322Z,14.2
2018-06-30T04:40:30.153Z,14.3
2018-06-30T04:41:52.516Z,14.3
2018-06-30T04:43:14.864Z,14.4
2018-06-30T04:44:34.697Z,14.4
2018-06-30T04:45:57.091Z,13.9
2018-06-30T04:47:16.907Z,14.3
2018-06-30T04:48:36.753Z,14.1
2018-06-30T04:49:59.098Z,14
2018-06-30T04:51:31.615Z,16.8
2018-06-30T04:52:51.445Z,17.6
2018-06-30T04:54:11.269Z,16.3
2018-06-30T04:55:33.667Z,16.8
2018-06-30T04:56:53.524Z,17.3
2018-06-30T04:58:13.408Z,17.9
2018-06-30T04:59:35.771Z,16.6
2018-06-30T05:00:58.163Z,15.4
2018-06-30T05:02:23.072Z,14.3
2018-06-30T05:03:42.955Z,15.6
2018-06-30T05:05:02.808Z,13.8
2018-06-30T05:06:27.741Z,13.5
2018-06-30T05:07:50.090Z,16.9
2018-06-30T05:09:22.592Z,16.8
2018-06-30T05:10:42.417Z,17
2018-06-30T05:12:04.825Z,17
2018-06-30T05:13:32.290Z,17.3
2018-06-30T05:14:52.124Z,17.5
2018-06-30T05:16:14.548Z,17.6
2018-06-30T05:17:36.897Z,17.7
2018-06-30T05:18:56.748Z,17.5
2018-06-30T05:20:21.623Z,16.9
2018-06-30T05:21:43.980Z,17.4
2018-06-30T05:23:06.411Z,16.4
2018-06-30T05:24:26.240Z,16.5
2018-06-30T05:25:48.619Z,16.6
2018-06-30T05:27:13.537Z,16.6
2018-06-30T05:28:35.898Z,16.8
2018-06-30T05:29:55.748Z,16.8
2018-06-30T05:31:15.576Z,16.9
2018-06-30T05:32:37.983Z,16.7
2018-06-30T05:34:00.393Z,16.8
2018-06-30T05:35:22.822Z,17.2
2018-06-30T05:36:42.699Z,16.6
2018-06-30T05:38:02.534Z,16.6
2018-06-30T05:39:27.413Z,16.8
2018-06-30T05:40:47.311Z,16.8
2018-06-30T05:42:14.767Z,15.7
2018-06-30T05:43:34.603Z,17.2
2018-06-30T05:44:54.479Z,16.7
2018-06-30T05:46:14.294Z,16.7
2018-06-30T05:47:34.145Z,16.7
2018-06-30T05:48:53.972Z,16.8
2018-06-30T05:50:26.445Z,16.8
2018-06-30T05:51:46.315Z,16
2018-06-30T05:53:11.241Z,16.5
2018-06-30T05:54:38.763Z,16.5
2018-06-30T05:56:06.178Z,16.3
2018-06-30T05:57:26.009Z,16
2018-06-30T05:58:45.871Z,16
2018-06-30T06:00:08.251Z,16.1
2018-06-30T06:01:30.599Z,16
2018-06-30T06:02:50.428Z,16
2018-06-30T06:04:12.806Z,16
2018-06-30T06:05:32.661Z,15.9
2018-06-30T06:06:57.617Z,16
2018-06-30T06:08:19.961Z,15.9
2018-06-30T06:09:42.363Z,15.8
2018-06-30T06:11:04.801Z,15.7
2018-06-30T06:12:29.732Z,16
2018-06-30T06:13:54.645Z,15.7
2018-06-30T06:15:14.681Z,14.9
2018-06-30T06:16:34.588Z,16.1
2018-06-30T06:18:02.057Z,16.2
2018-06-30T06:19:21.933Z,16.3
2018-06-30T06:20:44.305Z,15.6
2018-06-30T06:22:06.667Z,16.4
2018-06-30T06:23:26.510Z,16.5
2018-06-30T06:24:46.379Z,16.7
2018-06-30T06:26:06.203Z,16.8
2018-06-30T06:27:26.047Z,16.8
2018-06-30T06:28:48.510Z,16.6
2018-06-30T06:30:08.351Z,16.8
2018-06-30T06:31:28.200Z,16.8
2018-06-30T06:32:50.741Z,16.8
2018-06-30T06:34:18.234Z,16.8
2018-06-30T06:35:38.079Z,16.7
2018-06-30T06:36:57.970Z,16.7
2018-06-30T06:38:25.409Z,16.7
2018-06-30T06:39:45.233Z,16.6
2018-06-30T06:41:05.100Z,16.6
2018-06-30T06:42:27.522Z,16.7
2018-06-30T06:43:49.893Z,16.8
2018-06-30T06:45:12.257Z,16.7
2018-06-30T06:46:44.749Z,16.8
2018-06-30T06:48:07.102Z,16.7
2018-06-30T06:49:29.499Z,16.6
2018-06-30T06:50:56.979Z,16.8
2018-06-30T06:52:21.859Z,16.8
2018-06-30T06:53:44.246Z,16.8
2018-06-30T06:55:04.088Z,16.8
2018-06-30T06:56:23.982Z,16.9
2018-06-30T06:57:48.922Z,16.9
2018-06-30T06:59:11.270Z,16.8
2018-06-30T07:00:41.354Z,16.9
2018-06-30T07:02:08.797Z,17
2018-06-30T07:03:28.629Z,17
2018-06-30T07:04:53.508Z,17.1
2018-06-30T07:06:13.379Z,17.1
2018-06-30T07:07:35.806Z,17.2
2018-06-30T07:08:58.171Z,17.4
2018-06-30T07:10:18.020Z,17.2
2018-06-30T07:11:37.868Z,17.2
2018-06-30T07:13:00.257Z,17.2
2018-06-30T07:14:20.097Z,17.3
2018-06-30T07:15:39.974Z,17.3
2018-06-30T07:16:59.842Z,17.3
2018-06-30T07:18:22.279Z,17.3
2018-06-30T07:19:44.697Z,17.4
2018-06-30T07:21:04.561Z,17.4
2018-06-30T07:22:26.913Z,17.3
2018-06-30T07:23:46.750Z,17.4
2018-06-30T07:25:06.588Z,17.4
2018-06-30T07:26:36.573Z,16.2
2018-06-30T07:27:56.397Z,16.6
2018-06-30T07:29:16.250Z,16.9
2018-06-30T07:30:36.074Z,15.9
2018-06-30T07:32:06.223Z,16.7
2018-06-30T07:33:26.047Z,16.8
2018-06-30T07:34:45.922Z,15.6
2018-06-30T07:36:18.400Z,17.8
2018-06-30T07:37:38.306Z,18.1
2018-06-30T07:38:58.130Z,18.8
2018-06-30T07:40:17.990Z,18.7
2018-06-30T07:41:47.956Z,18.6
2018-06-30T07:43:22.973Z,18.6
2018-06-30T07:44:45.341Z,18.8
2018-06-30T07:46:05.158Z,18.8
2018-06-30T07:47:24.983Z,18.3
2018-06-30T07:48:44.808Z,18.4
2018-06-30T07:50:04.727Z,18.7
2018-06-30T07:51:32.245Z,18.4
2018-06-30T07:52:57.179Z,17.3
2018-06-30T07:54:17.073Z,17.5
2018-06-30T07:55:39.460Z,17.7
2018-06-30T07:57:01.821Z,17.7
2018-06-30T07:58:21.687Z,17.8
2018-06-30T07:59:44.051Z,17.7
2018-06-30T08:01:03.874Z,17.8
2018-06-30T08:02:23.710Z,17.7
2018-06-30T08:03:48.649Z,17.8
2018-06-30T08:05:08.537Z,17.7
2018-06-30T08:06:28.386Z,17.7
2018-06-30T08:07:50.783Z,17.7
2018-06-30T08:09:13.151Z,18.6
2018-06-30T08:10:43.094Z,18.7
2018-06-30T08:12:13.040Z,18.7
2018-06-30T08:13:32.874Z,18.7
2018-06-30T08:14:52.742Z,18.7
2018-06-30T08:16:20.149Z,18.7
2018-06-30T08:17:39.974Z,18.8
2018-06-30T08:19:02.348Z,18.8
2018-06-30T08:20:24.716Z,18.7
2018-06-30T08:21:44.588Z,18.7
2018-06-30T08:23:04.407Z,18.8
2018-06-30T08:24:26.779Z,18.8
2018-06-30T08:25:51.683Z,18.8
2018-06-30T08:27:11.580Z,19
2018-06-30T08:28:33.937Z,18.9
2018-06-30T08:29:53.766Z,19
2018-06-30T08:31:13.633Z,19
2018-06-30T08:32:36.042Z,19
2018-06-30T08:34:03.441Z,18.9
2018-06-30T08:35:28.321Z,19
2018-06-30T08:36:48.142Z,19
2018-06-30T08:38:07.971Z,18.9
2018-06-30T08:39:27.824Z,18.9
2018-06-30T08:40:50.193Z,18.8
2018-06-30T08:42:12.571Z,18.7
2018-06-30T08:43:37.482Z,18.8
2018-06-30T08:44:57.366Z,18.7
2018-06-30T08:46:19.777Z,18.9
2018-06-30T08:47:44.654Z,18.9
2018-06-30T08:49:04.468Z,18.9
2018-06-30T08:50:24.288Z,18.8
2018-06-30T08:51:49.168Z,18.8
2018-06-30T08:53:14.109Z,18.8
2018-06-30T08:54:36.505Z,18.3
2018-06-30T08:55:56.389Z,18.3
2018-06-30T08:57:16.214Z,18.1
2018-06-30T08:58:36.033Z,17.9
2018-06-30T08:59:58.389Z,18
2018-06-30T09:01:25.805Z,17.7
2018-06-30T09:02:45.629Z,17.8
2018-06-30T09:04:05.508Z,17.9
2018-06-30T09:05:27.884Z,17.9
2018-06-30T09:06:47.707Z,17.9
2018-06-30T09:08:10.059Z,17.9
2018-06-30T09:09:29.879Z,18.3
2018-06-30T09:10:49.754Z,17.7
2018-06-30T09:12:24.767Z,17.3
2018-06-30T09:13:47.216Z,17.7
2018-06-30T09:15:17.250Z,17.5
2018-06-30T09:16:37.115Z,17.9
2018-06-30T09:17:56.969Z,17.9
2018-06-30T09:19:16.847Z,18
2018-06-30T09:20:36.695Z,18.2
2018-06-30T09:21:56.516Z,18.2
2018-06-30T09:23:18.905Z,18.3
2018-06-30T09:24:38.763Z,18.4
2018-06-30T09:26:01.137Z,18.3
2018-06-30T09:27:21.001Z,18.3
2018-06-30T09:28:45.905Z,18.3
2018-06-30T09:30:05.770Z,18.3
2018-06-30T09:31:25.599Z,18.3
2018-06-30T09:32:47.953Z,18.4
2018-06-30T09:34:07.776Z,18.3
2018-06-30T09:35:27.617Z,18.3
2018-06-30T09:36:57.620Z,18.3
2018-06-30T09:38:17.468Z,18.4
2018-06-30T09:39:44.873Z,18.2
2018-06-30T09:41:07.276Z,18.3
2018-06-30T09:42:27.121Z,18.3
2018-06-30T09:43:57.130Z,18.3
2018-06-30T09:45:17.059Z,18.4
2018-06-30T09:46:36.912Z,18.4
2018-06-30T09:47:56.760Z,18.4
2018-06-30T09:49:16.621Z,18.3
2018-06-30T09:50:41.575Z,18.3
2018-06-30T09:52:01.407Z,18.2
2018-06-30T09:53:21.315Z,18.2
2018-06-30T09:54:43.731Z,18.1
2018-06-30T09:56:06.134Z,17.9
2018-06-30T09:57:25.959Z,17.8
2018-06-30T09:58:45.777Z,17.8
2018-06-30T10:00:08.179Z,18
2018-06-30T10:01:28.000Z,17.7
2018-06-30T10:02:47.822Z,17.7
2018-06-30T10:04:10.196Z,17.8
2018-06-30T10:05:30.041Z,17.8
2018-06-30T10:06:54.942Z,17.9
2018-06-30T10:08:14.767Z,17.8
2018-06-30T10:09:34.588Z,17.9
2018-06-30T10:10:56.983Z,17.9
2018-06-30T10:12:16.841Z,17.7
2018-06-30T10:13:44.266Z,17.8
2018-06-30T10:15:06.676Z,17.7
2018-06-30T10:16:34.148Z,17.7
2018-06-30T10:17:54.002Z,18
2018-06-30T10:19:13.929Z,18.1
2018-06-30T10:20:36.353Z,18.1
2018-06-30T10:21:56.231Z,18.1
2018-06-30T10:23:21.165Z,18.1
2018-06-30T10:24:41.044Z,18.1
2018-06-30T10:26:00.921Z,18.1
2018-06-30T10:27:20.744Z,17.9
2018-06-30T10:28:40.624Z,17.8
2018-06-30T10:30:00.446Z,17.9
2018-06-30T10:31:20.340Z,17.9
2018-06-30T10:32:40.172Z,17.8
2018-06-30T10:34:15.244Z,17.8
2018-06-30T10:35:35.070Z,17.9
2018-06-30T10:36:54.945Z,17.9
2018-06-30T10:38:19.841Z,17.7
2018-06-30T10:39:39.663Z,17.8
2018-06-30T10:41:02.094Z,17.9
2018-06-30T10:42:22.049Z,17.9
2018-06-30T10:43:44.436Z,17.9
2018-06-30T10:45:06.815Z,17.9
2018-06-30T10:46:26.663Z,17.6
2018-06-30T10:47:51.592Z,17.8
2018-06-30T10:49:16.498Z,17.9
2018-06-30T10:50:38.857Z,17.9
2018-06-30T10:52:24.003Z,17.8
2018-06-30T10:53:46.420Z,17.9
2018-06-30T10:55:06.282Z,17.9
2018-06-30T10:56:28.634Z,17.8
2018-06-30T10:57:51.024Z,17.8
2018-06-30T10:59:10.902Z,17.9
2018-06-30T11:00:30.880Z,18.2
2018-06-30T11:01:50.864Z,17.8
2018-06-30T11:03:10.684Z,17.9
2018-06-30T11:04:30.503Z,17.9
2018-06-30T11:05:50.333Z,17.8
2018-06-30T11:07:12.805Z,17.8
2018-06-30T11:08:32.632Z,17.9
2018-06-30T11:09:52.502Z,17.8
2018-06-30T11:11:12.324Z,17.9
2018-06-30T11:12:34.744Z,18
2018-06-30T11:13:59.697Z,18.3
2018-06-30T11:15:22.075Z,18.4
2018-06-30T11:16:44.446Z,18.4
2018-06-30T11:18:14.410Z,17.9
2018-06-30T11:19:34.239Z,18.3
2018-06-30T11:20:54.079Z,18.1
2018-06-30T11:22:16.514Z,18.9
2018-06-30T11:23:36.371Z,19
2018-06-30T11:24:58.718Z,18.5
2018-06-30T11:26:18.549Z,18.5
2018-06-30T11:27:43.440Z,18.7
2018-06-30T11:29:05.792Z,18.9
2018-06-30T11:30:25.662Z,18.9
2018-06-30T11:31:45.484Z,18.6
2018-06-30T11:33:07.831Z,18.6
2018-06-30T11:34:35.300Z,18.6
2018-06-30T11:35:55.154Z,18.7
2018-06-30T11:37:14.994Z,18.7
2018-06-30T11:38:37.347Z,18.7
2018-06-30T11:40:02.244Z,18.7
2018-06-30T11:41:22.095Z,18.8
2018-06-30T11:42:41.952Z,18.8
2018-06-30T11:44:01.811Z,18.8
2018-06-30T11:45:21.699Z,18.8
2018-06-30T11:46:41.546Z,18.8
2018-06-30T11:48:01.434Z,18.8
2018-06-30T11:49:21.286Z,19
2018-06-30T11:50:43.640Z,19
2018-06-30T11:52:06.010Z,19
2018-06-30T11:53:25.864Z,18.8
2018-06-30T11:54:50.794Z,18.8
2018-06-30T11:56:10.672Z,18.8
2018-06-30T11:57:35.555Z,18.9
2018-06-30T11:58:55.436Z,18.9
2018-06-30T12:00:17.797Z,19.3
2018-06-30T12:01:37.627Z,19.2
2018-06-30T12:03:02.514Z,19.1
2018-06-30T12:04:22.391Z,19.5
2018-06-30T12:05:42.227Z,19.6
2018-06-30T12:07:02.047Z,19.7
2018-06-30T12:08:24.398Z,19.5
2018-06-30T12:09:51.842Z,19.7
2018-06-30T12:11:11.739Z,20.1
2018-06-30T12:12:31.633Z,20
2018-06-30T12:13:53.987Z,20.3
2018-06-30T12:15:21.441Z,19.6
2018-06-30T12:16:41.339Z,19.8
2018-06-30T12:18:11.321Z,20.6
2018-06-30T12:19:31.238Z,20.5
2018-06-30T12:20:51.091Z,21.1
2018-06-30T12:22:16.014Z,21.5
2018-06-30T12:23:38.367Z,21.6
2018-06-30T12:25:03.255Z,21.7
2018-06-30T12:26:30.715Z,21.8
2018-06-30T12:27:50.610Z,22
2018-06-30T12:29:10.439Z,22.1
2018-06-30T12:30:30.295Z,22
2018-06-30T12:31:57.758Z,22.2
2018-06-30T12:33:17.622Z,22.3
2018-06-30T12:34:47.626Z,22.4
2018-06-30T12:36:07.489Z,22.5
2018-06-30T12:37:34.928Z,22.7
2018-06-30T12:38:57.320Z,22.9
2018-06-30T12:40:17.149Z,23
2018-06-30T12:41:42.087Z,23
2018-06-30T12:43:01.916Z,23.2
2018-06-30T12:44:21.761Z,23.5
2018-06-30T12:45:46.686Z,23.5
2018-06-30T12:47:06.537Z,23.6
2018-06-30T12:48:36.552Z,23.7
2018-06-30T12:49:58.956Z,23.8
2018-06-30T12:51:21.336Z,23.7
2018-06-30T12:52:58.904Z,23.8
2018-06-30T12:54:23.917Z,23.9
2018-06-30T12:55:48.897Z,24
2018-06-30T12:57:08.725Z,24
2018-06-30T12:58:41.256Z,24.2
2018-06-30T13:00:08.664Z,24.1
2018-06-30T13:01:33.558Z,24.1
2018-06-30T13:02:55.968Z,24.3
2018-06-30T13:04:18.344Z,24.3
2018-06-30T13:05:43.280Z,24.3
2018-06-30T13:07:10.707Z,24.4
2018-06-30T13:08:30.532Z,24.4
2018-06-30T13:09:52.958Z,24.5
2018-06-30T13:11:12.780Z,24.8
2018-06-30T13:12:32.630Z,24.9
2018-06-30T13:13:54.978Z,24.8
2018-06-30T13:15:19.860Z,25.5
2018-06-30T13:16:39.733Z,25.4
2018-06-30T13:17:59.596Z,25.3
2018-06-30T13:19:19.431Z,25.3
2018-06-30T13:20:44.330Z,25.5
2018-06-30T13:22:09.214Z,25.8
2018-06-30T13:23:31.641Z,25.8
2018-06-30T13:24:53.991Z,25.7
2018-06-30T13:26:18.921Z,25.7
2018-06-30T13:27:43.799Z,25.8
2018-06-30T13:29:03.646Z,25.8
2018-06-30T13:30:23.516Z,26
2018-06-30T13:31:53.460Z,26
2018-06-30T13:33:15.846Z,26
2018-06-30T13:34:35.755Z,26
2018-06-30T13:35:58.111Z,26
2018-06-30T13:37:22.992Z,26
2018-06-30T13:38:42.808Z,25.8
2018-06-30T13:40:02.662Z,25.9
2018-06-30T13:41:22.517Z,26
2018-06-30T13:42:47.414Z,25.9
2018-06-30T13:44:19.875Z,25.7
2018-06-30T13:45:44.762Z,25.8
2018-06-30T13:47:04.583Z,25.7
2018-06-30T13:48:24.407Z,25.8
2018-06-30T13:49:44.227Z,26.1
2018-06-30T13:51:04.054Z,26.2
2018-06-30T13:52:28.964Z,26.2
2018-06-30T13:53:48.825Z,26.3
2018-06-30T13:55:08.678Z,26.1
2018-06-30T13:56:28.506Z,25.9
2018-06-30T13:57:53.397Z,26
2018-06-30T13:59:15.839Z,26
2018-06-30T14:00:35.694Z,26.1
2018-06-30T14:01:55.542Z,26.2
2018-06-30T14:03:15.429Z,26.1
2018-06-30T14:04:40.366Z,26.2
2018-06-30T14:06:00.211Z,26.2
2018-06-30T14:07:25.116Z,25.8
2018-06-30T14:08:44.975Z,25.8
2018-06-30T14:10:04.832Z,24.6
2018-06-30T14:11:29.712Z,25.2
2018-06-30T14:12:57.127Z,23.9
2018-06-30T14:14:16.972Z,24.4
2018-06-30T14:15:39.357Z,25.8
2018-06-30T14:16:59.178Z,24.9
2018-06-30T14:18:19.047Z,25.5
2018-06-30T14:19:46.528Z,25.9
2018-06-30T14:21:08.882Z,25.5
2018-06-30T14:22:33.809Z,25.6
2018-06-30T14:23:53.637Z,25.9
2018-06-30T14:25:13.452Z,26.5
2018-06-30T14:26:33.271Z,25.9
2018-06-30T14:27:53.132Z,26.2
2018-06-30T14:29:12.960Z,26.3
2018-06-30T14:30:35.357Z,26.1
2018-06-30T14:31:55.189Z,26.2
2018-06-30T14:33:17.608Z,27.1
2018-06-30T14:34:37.474Z,26.3
2018-06-30T14:35:57.315Z,25.9
2018-06-30T14:37:17.193Z,26.5
2018-06-30T14:38:37.021Z,26
2018-06-30T14:39:59.401Z,26.3
2018-06-30T14:41:21.757Z,27.1
2018-06-30T14:42:44.134Z,27.4
2018-06-30T14:44:06.514Z,26.3
2018-06-30T14:45:31.461Z,26.8
2018-06-30T14:46:51.339Z,26.9
2018-06-30T14:48:13.731Z,26
2018-06-30T14:49:36.193Z,26.5
2018-06-30T14:51:03.604Z,26.6
2018-06-30T14:52:25.988Z,26.6
2018-06-30T14:53:45.863Z,26.5
2018-06-30T14:55:13.334Z,26.5
2018-06-30T14:56:35.861Z,26.3
2018-06-30T14:58:05.867Z,26
2018-06-30T14:59:28.236Z,26.2
2018-06-30T15:00:48.116Z,25.8
2018-06-30T15:02:13.042Z,25.6
2018-06-30T15:03:35.440Z,25.5
2018-06-30T15:04:55.285Z,24.6
2018-06-30T15:06:15.169Z,25.9
2018-06-30T15:07:35.027Z,25.2
2018-06-30T15:08:54.969Z,25
2018-06-30T15:10:17.316Z,24.7
2018-06-30T15:11:39.666Z,24.9
2018-06-30T15:13:04.590Z,24.9
2018-06-30T15:14:24.411Z,25.1
2018-06-30T15:15:44.263Z,24.8
2018-06-30T15:17:04.085Z,24.8
2018-06-30T15:18:23.907Z,24.7
2018-06-30T15:19:43.736Z,24.5
2018-06-30T15:21:03.570Z,24.4
2018-06-30T15:22:25.947Z,23.9
2018-06-30T15:23:45.805Z,23.5
2018-06-30T15:25:10.709Z,23.3
2018-06-30T15:26:33.057Z,23.8
2018-06-30T15:28:05.575Z,24.1
2018-06-30T15:29:25.425Z,23.9
2018-06-30T15:30:45.277Z,23.8
2018-06-30T15:32:10.206Z,23.7
2018-06-30T15:33:30.055Z,23.7
2018-06-30T15:34:52.412Z,23.6
2018-06-30T15:36:12.346Z,23.5
2018-06-30T15:37:34.836Z,23.4
2018-06-30T15:38:54.664Z,23.4
2018-06-30T15:40:22.078Z,23.4
2018-06-30T15:41:41.900Z,23.3
2018-06-30T15:43:01.743Z,22.9
2018-06-30T15:44:21.564Z,22.9
2018-06-30T15:45:46.459Z,23.4
2018-06-30T15:47:06.276Z,22.4
2018-06-30T15:48:26.149Z,22.5
2018-06-30T15:49:46.004Z,22.5
2018-06-30T15:51:08.414Z,22.5
2018-06-30T15:52:28.293Z,22.5
2018-06-30T15:53:48.122Z,22.4
2018-06-30T15:55:07.987Z,23.1
2018-06-30T15:56:30.391Z,23
2018-06-30T15:57:52.738Z,22.9
2018-06-30T15:59:12.651Z,22.9
2018-06-30T16:00:32.492Z,22.8
2018-06-30T16:01:52.371Z,22.3
2018-06-30T16:03:12.227Z,22.3
2018-06-30T16:04:32.056Z,22.3
2018-06-30T16:05:51.882Z,22.6
2018-06-30T16:07:16.763Z,22.6
2018-06-30T16:08:36.639Z,22.5
2018-06-30T16:09:56.502Z,22.4
2018-06-30T16:11:16.392Z,22.4
2018-06-30T16:12:36.218Z,22.5
2018-06-30T16:13:56.082Z,22.8
2018-06-30T16:15:18.483Z,22.5
2018-06-30T16:16:38.356Z,22.4
2018-06-30T16:17:58.233Z,22.3
2018-06-30T16:19:18.054Z,22.3
2018-06-30T16:20:42.974Z,22.3
2018-06-30T16:22:05.392Z,22.3
2018-06-30T16:23:27.744Z,22.3
2018-06-30T16:24:47.601Z,22.3
2018-06-30T16:26:12.475Z,22.2
2018-06-30T16:27:37.407Z,22.1
2018-06-30T16:28:57.249Z,22.3
2018-06-30T16:30:19.683Z,21.5
2018-06-30T16:31:42.063Z,22.5
2018-06-30T16:33:09.477Z,22.4
2018-06-30T16:34:29.338Z,22.5
2018-06-30T16:35:51.689Z,22.3
2018-06-30T16:37:11.514Z,21.8
2018-06-30T16:38:33.874Z,21.7
2018-06-30T16:39:58.816Z,22.1
2018-06-30T16:41:26.231Z,21.6
2018-06-30T16:42:46.058Z,20.6
2018-06-30T16:44:05.937Z,20.2
2018-06-30T16:45:30.827Z,20.2
2018-06-30T16:46:50.704Z,20.3
2018-06-30T16:48:10.569Z,20
2018-06-30T16:49:30.424Z,19.9
2018-06-30T16:51:00.427Z,20.8
2018-06-30T16:52:22.779Z,21.3
2018-06-30T16:53:42.608Z,21.2
2018-06-30T16:55:02.458Z,21.1
2018-06-30T16:56:22.302Z,20.4
2018-06-30T16:57:42.178Z,20.9
2018-06-30T16:59:02.036Z,20.7
2018-06-30T17:00:24.424Z,20.6
2018-06-30T17:01:46.785Z,20.9
2018-06-30T17:03:11.735Z,20.9
2018-06-30T17:04:31.563Z,20.8
2018-06-30T17:05:51.432Z,20.3
2018-06-30T17:07:21.395Z,20.4
2018-06-30T17:08:41.259Z,20.5
2018-06-30T17:10:03.628Z,19.2
2018-06-30T17:11:25.980Z,20.6
2018-06-30T17:12:45.795Z,20.4
2018-06-30T17:14:05.639Z,21
2018-06-30T17:15:28.050Z,21.1
2018-06-30T17:16:47.886Z,21.3
2018-06-30T17:18:12.766Z,21.1
2018-06-30T17:19:32.601Z,19.5
2018-06-30T17:20:52.429Z,19.5
2018-06-30T17:22:19.871Z,20.2
2018-06-30T17:23:44.796Z,20.3
2018-06-30T17:25:07.165Z,20.9
2018-06-30T17:26:29.547Z,20.5
2018-06-30T17:27:54.494Z,20.8
2018-06-30T17:29:19.452Z,20.9
2018-06-30T17:30:41.864Z,20.6
2018-06-30T17:32:04.243Z,20.7
2018-06-30T17:33:24.099Z,20.1
2018-06-30T17:34:43.925Z,20.3
2018-06-30T17:36:03.758Z,20.2
2018-06-30T17:37:31.165Z,20.7
2018-06-30T17:38:53.527Z,20.6
2018-06-30T17:40:13.380Z,19.7
2018-06-30T17:41:35.750Z,20.7
2018-06-30T17:42:55.588Z,20.7
2018-06-30T17:44:33.238Z,20.7
2018-06-30T17:46:03.174Z,20.6
2018-06-30T17:47:23.002Z,20
2018-06-30T17:48:42.875Z,19.6
2018-06-30T17:50:12.855Z,18.6
2018-06-30T17:51:32.686Z,20.2
2018-06-30T17:52:57.622Z,20.3
2018-06-30T17:54:22.531Z,19.5
2018-06-30T17:55:42.400Z,20.1
2018-06-30T17:57:02.303Z,20.6
2018-06-30T17:58:24.733Z,21.1
2018-06-30T17:59:52.143Z,21.1
2018-06-30T18:01:12.008Z,21
2018-06-30T18:02:39.444Z,21.2
2018-06-30T18:04:01.862Z,21.4
2018-06-30T18:05:21.720Z,21.4
2018-06-30T18:06:44.086Z,21.3
2018-06-30T18:08:06.443Z,21.1
2018-06-30T18:09:26.289Z,21.1
2018-06-30T18:10:46.178Z,19.9
2018-06-30T18:12:13.611Z,20.4
2018-06-30T18:13:38.525Z,20.4
2018-06-30T18:14:58.346Z,20.5
2018-06-30T18:16:18.167Z,21.4
2018-06-30T18:17:37.985Z,20.7
2018-06-30T18:19:05.417Z,19.6
2018-06-30T18:20:32.851Z,20
2018-06-30T18:21:55.221Z,20.4